N1PLV Weather Reports


Display with metric or nautical units.
time (UTC)temp
F
wind
direction
speed
MPH
gust
MPH
rain 1hr
in
rain 24hr
in
rain mn
in
humidity
%
barometer
mb
20240305002959 56 96 9.0 16.0 0.14 1.89 1.89 97 1016.1
20240305001458 56 107 8.0 17.0 0.09 1.84 1.84 97 1016.2
20240304235959 56 93 11.0 17.0 0.04 1.78 1.78 97 1016.6
20240304234458 56 93 10.0 18.0 0.02 1.75 1.75 97 1016.7
20240304232958 56 98 6.0 16.0 0.04 1.75 1.75 97 1016.8
20240304231458 56 360 8.0 12.0 0.12 1.75 1.75 97 1016.9
20240304225958 57 106 10.0 15.0 0.21 1.74 1.74 97 1016.9
20240304224459 57 79 12.0 18.0 0.25 1.73 1.73 97 1017.0
20240304215959 57 103 6.0 12.0 0.10 1.53 1.53 97 1017.2
20240304214458 56 97 7.0 13.0 0.05 1.48 1.48 97 1017.3
20240304212959 56 360 10.0 15.0 0.04 1.47 1.47 97 1017.3
20240304211458 56 61 7.0 13.0 0.03 1.45 1.45 97 1017.5
20240304205959 56 360 7.0 12.0 0.01 1.43 1.43 97 1017.6
20240304204459 56 26 5.0 11.0 0.02 1.43 1.43 96 1017.8
20240304202959 56 360 3.0 7.0 0.04 1.43 1.43 96 1017.8
20240304195959 58 85 10.0 16.0 0.09 1.42 1.42 97 1018.2
20240304194458 57 86 8.0 13.0 0.14 1.41 1.41 97 1018.4
20240304193002 57 78 8.0 16.0 0.21 1.39 1.39 97 1018.6
20240304191459 56 114 7.0 12.0 0.21 1.33 1.33 96 1018.6
20240304190000 57 113 6.0 11.0 0.36 1.33 1.33 97 1019.0
20240304184458 57 93 8.0 11.0 0.32 1.27 1.27 97 1019.3
20240304182959 57 90 6.0 17.0 0.25 1.18 1.18 97 1019.4
20240304181459 57 97 7.0 14.0 0.29 1.12 1.12 97 1019.8
20240304171459 55 360 8.0 16.0 0.23 0.83 0.83 97 1020.7
20240304165959 55 82 7.0 14.0 0.18 0.72 0.72 96 1020.8
20240304164458 55 54 7.0 12.0 0.22 0.68 0.68 96 1020.8
20240304162958 54 67 8.0 13.0 0.26 0.64 0.64 96 1021.1
20240304161458 55 75 8.0 14.0 0.25 0.60 0.60 96 1021.4
20240304154501 55 36 9.0 17.0 0.17 0.46 0.46 96 1022.0
20240304153001 54 49 9.0 20.0 0.10 0.38 0.38 96 1022.1
20240304151500 54 38 9.0 17.0 0.10 0.35 0.35 96 1021.9
20240304150001 54 52 9.0 16.0 0.08 0.31 0.31 96 1022.1
20240304144500 53 54 8.0 15.0 0.08 0.29 0.29 96 1022.3
20240304143000 53 57 8.0 13.0 0.07 0.28 0.28 96 1022.5
20240304141500 54 57 7.0 13.0 0.04 0.25 0.25 96 1022.5
20240304140001 54 33 8.0 14.0 0.01 0.22 0.22 96 1022.5
20240304134500 54 360 8.0 14.0 0.01 0.21 0.21 95 1022.4
20240304133000 54 69 7.0 11.0 0.01 0.21 0.21 96 1022.4
20240304131500 55 30 9.0 15.0 0.02 0.21 0.21 96 1022.3
20240304130001 55 42 8.0 13.0 0.03 0.21 0.21 96 1022.4
20240304124500 54 55 9.0 15.0 0.03 0.20 0.20 96 1022.4
20240304123001 53 63 6.0 11.0 0.03 0.20 0.20 95 1022.2
20240304121500 53 33 3.0 6.0 0.03 0.19 0.19 96 1022.0
20240304120012 53 350 3.0 6.0 0.03 0.18 0.18 95 1022.2
20240304114500 53 32 2.0 5.0 0.02 0.17 0.17 95 1022.3
20240304113001 53 5 3.0 8.0 0.03 0.17 0.17 95 1022.3
20240304111500 53 344 3.0 6.0 0.02 0.16 0.16 95 1022.3
20240304110001 53 15 3.0 9.0 0.02 0.15 0.15 95 1022.3
20240304104500 54 34 4.0 11.0 0.03 0.15 0.15 95 1022.3
20240304103001 54 55 5.0 11.0 0.03 0.14 0.14 95 1022.1
20240304101500 55 26 8.0 15.0 0.06 0.14 0.14 95 1022.1
20240304100001 55 11 8.0 13.0 0.07 0.13 0.13 95 1022.0
20240304094500 55 65 7.0 13.0 0.09 0.12 0.12 95 1022.0
20240304093001 55 360 7.0 12.0 0.09 0.10 0.10 95 1022.1
20240304091500 54 360 7.0 11.0 0.08 0.08 0.08 95 1022.0
20240304090000 53 53 7.0 12.0 0.06 0.06 0.06 95 1022.1
20240304084500 53 35 7.0 13.0 0.03 0.03 0.03 94 1022.1
20240304083000 53 48 7.0 11.0 0.00 0.00 0.00 94 1022.2
20240304081500 54 65 6.0 12.0 0.00 0.00 0.00 94 1022.1
20240304080000 54 360 7.0 13.0 0.00 0.00 0.00 94 1022.1
20240304073001 54 44 9.0 13.0 0.00 0.00 0.00 95 1022.1
20240304071500 54 57 8.0 14.0 0.00 0.00 0.00 94 1022.2
20240304070000 54 360 9.0 13.0 0.00 0.00 0.00 94 1022.4
20240304064500 54 61 7.0 12.0 0.00 0.00 0.00 94 1022.6
20240304063000 54 60 9.0 14.0 0.00 0.00 0.00 94 1022.6
20240304061501 54 360 10.0 16.0 0.00 0.00 0.00 94 1022.7
20240304060000 54 63 10.0 16.0 0.00 0.00 0.00 94 1022.5
20240304054500 55 69 11.0 17.0 0.00 0.00 0.00 94 1022.7
20240304053000 54 69 9.0 14.0 0.00 0.00 0.00 93 1022.6
20240304051500 54 54 8.0 13.0 0.00 0.00 0.00 93 1022.7
20240304050003 54 71 7.0 13.0 0.00 0.00 0.00 94 1022.6
20240304044501 53 65 8.0 12.0 0.00 0.00 0.00 94 1022.6
20240304043001 53 75 9.0 15.0 0.00 0.00 0.00 94 1022.8
20240304041500 53 63 7.0 14.0 0.00 0.00 0.00 94 1022.9
20240304025958 52 66 3.0 10.0 0.00 0.00 0.00 93 1023.2
20240304024458 52 360 5.0 7.0 0.00 0.00 0.00 93 1023.2
20240304022958 52 350 4.0 9.0 0.00 0.00 0.00 93 1023.1
20240304021458 52 9 3.0 8.0 0.00 0.00 0.00 93 1023.0
20240304015958 52 42 4.0 9.0 0.00 0.00 0.00 93 1023.0
20240304014458 51 360 3.0 6.0 0.00 0.00 0.00 93 1023.2
20240304012958 51 27 4.0 9.0 0.00 0.00 0.00 93 1023.3
20240304011458 51 339 5.0 10.0 0.00 0.00 0.00 93 1023.4
20240304004458 51 26 5.0 14.0 0.00 0.00 0.00 93 1023.0